createdAt,value
2018-08-07T00:00:28.712Z,3.23
2018-08-07T00:03:02.989Z,3.40
2018-08-07T00:05:37.318Z,5.23
2018-08-07T00:08:11.634Z,3.90
2018-08-07T00:10:45.910Z,2.40
2018-08-07T00:13:20.210Z,5.13
2018-08-07T00:15:54.534Z,2.33
2018-08-07T00:18:28.782Z,6.83
2018-08-07T00:21:03.182Z,2.93
2018-08-07T00:23:37.322Z,2.10
2018-08-07T00:26:11.561Z,4.23
2018-08-07T00:28:46.014Z,1.77
2018-08-07T00:31:20.305Z,4.10
2018-08-07T00:33:54.645Z,2.20
2018-08-07T00:36:28.978Z,2.40
2018-08-07T00:39:03.262Z,6.77
2018-08-07T00:41:37.506Z,1.83
2018-08-07T00:44:11.877Z,9.17
2018-08-07T00:46:46.034Z,3.07
2018-08-07T00:49:20.317Z,1.70
2018-08-07T00:51:54.635Z,2.47
2018-08-07T00:54:28.803Z,5.20
2018-08-07T00:57:03.202Z,3.87
2018-08-07T00:59:37.421Z,2.30
2018-08-07T01:02:11.570Z,1.93
2018-08-07T01:04:45.878Z,3.17
2018-08-07T01:07:20.077Z,4.70
2018-08-07T01:09:54.240Z,3.17
2018-08-07T01:12:28.526Z,5.17
2018-08-07T01:15:02.897Z,3.70
2018-08-07T01:17:37.113Z,3.57
2018-08-07T01:20:26.066Z,1.63
2018-08-07T01:23:00.245Z,4.67
2018-08-07T01:25:34.682Z,5.63
2018-08-07T01:28:08.962Z,3.13
2018-08-07T01:30:43.178Z,6.97
2018-08-07T01:33:17.501Z,14.10
2018-08-07T01:35:51.665Z,4.93
2018-08-07T01:38:25.954Z,5.13
2018-08-07T01:41:00.377Z,2.27
2018-08-07T01:43:34.640Z,3.50
2018-08-07T01:46:08.906Z,5.23
2018-08-07T01:48:43.049Z,3.30
2018-08-07T01:51:17.389Z,4.53
2018-08-07T01:53:51.598Z,2.03
2018-08-07T01:56:25.873Z,2.07
2018-08-07T01:59:00.180Z,5.80
2018-08-07T02:01:34.470Z,3.13
2018-08-07T02:04:08.827Z,4.47
2018-08-07T02:06:43.065Z,5.13
2018-08-07T02:09:17.354Z,3.10
2018-08-07T02:11:51.621Z,3.73
2018-08-07T02:14:25.959Z,2.67
2018-08-07T02:17:00.255Z,5.67
2018-08-07T02:19:34.668Z,3.73
2018-08-07T02:22:08.996Z,2.63
2018-08-07T02:24:43.301Z,2.80
2018-08-07T02:27:17.598Z,2.73
2018-08-07T02:29:51.959Z,2.70
2018-08-07T02:32:26.258Z,8.13
2018-08-07T02:35:00.511Z,3.73
2018-08-07T02:37:34.818Z,3.57
2018-08-07T02:40:10.174Z,6.43
2018-08-07T02:42:44.428Z,4.10
2018-08-07T02:45:19.298Z,5.10
2018-08-07T02:47:53.322Z,5.50
2018-08-07T02:50:27.553Z,7.67
2018-08-07T02:53:01.842Z,3.60
2018-08-07T02:55:36.150Z,6.90
2018-08-07T02:58:10.542Z,2.80
2018-08-07T03:00:44.807Z,3.30
2018-08-07T03:03:19.140Z,2.07
2018-08-07T03:05:53.446Z,5.03
2018-08-07T03:08:27.704Z,2.73
2018-08-07T03:11:01.998Z,4.60
2018-08-07T03:13:36.296Z,2.40
2018-08-07T03:16:10.543Z,3.17
2018-08-07T03:18:44.782Z,5.33
2018-08-07T03:21:19.278Z,3.53
2018-08-07T03:23:53.550Z,2.37
2018-08-07T03:26:27.847Z,4.63
2018-08-07T03:29:02.193Z,3.17
2018-08-07T03:31:36.527Z,6.00
2018-08-07T03:34:11.015Z,2.03
2018-08-07T03:36:45.221Z,3.00
2018-08-07T03:39:19.517Z,3.30
2018-08-07T03:41:53.856Z,4.17
2018-08-07T03:44:28.147Z,6.03
2018-08-07T03:47:02.475Z,2.73
2018-08-07T03:49:36.635Z,2.70
2018-08-07T03:52:10.873Z,5.83
2018-08-07T03:54:45.160Z,3.80
2018-08-07T03:57:19.490Z,4.10
2018-08-07T03:59:53.710Z,3.60
2018-08-07T04:02:27.854Z,4.23
2018-08-07T04:05:02.283Z,3.35
2018-08-07T04:07:37.042Z,3.87
2018-08-07T04:10:13.641Z,4.37
2018-08-07T04:12:47.851Z,4.30
2018-08-07T04:15:22.046Z,5.20
2018-08-07T04:17:56.485Z,4.07
2018-08-07T04:20:30.722Z,3.07
2018-08-07T04:23:04.930Z,4.97
2018-08-07T04:25:39.269Z,4.90
2018-08-07T04:28:13.678Z,4.27
2018-08-07T04:30:47.964Z,3.83
2018-08-07T04:33:22.259Z,2.77
2018-08-07T04:35:56.557Z,4.50
2018-08-07T04:38:30.929Z,7.43
2018-08-07T04:41:05.229Z,4.97
2018-08-07T04:43:39.525Z,7.10
2018-08-07T04:46:13.833Z,4.03
2018-08-07T04:48:48.122Z,5.03
2018-08-07T04:51:22.352Z,2.77
2018-08-07T04:53:56.675Z,7.27
2018-08-07T04:56:31.018Z,8.63
2018-08-07T04:59:05.358Z,8.50
2018-08-07T05:01:39.600Z,7.50
2018-08-07T05:04:13.805Z,15.53
2018-08-07T05:06:48.116Z,24.83
2018-08-07T05:09:22.411Z,32.37
2018-08-07T05:11:56.701Z,29.50
2018-08-07T05:14:30.974Z,23.03
2018-08-07T05:17:05.278Z,23.33
2018-08-07T05:19:39.512Z,31.27
2018-08-07T05:22:13.857Z,27.93
2018-08-07T05:24:48.266Z,22.03
2018-08-07T05:27:22.446Z,26.87
2018-08-07T05:29:56.765Z,29.87
2018-08-07T05:32:31.001Z,25.27
2018-08-07T05:35:05.331Z,20.80
2018-08-07T05:37:39.698Z,13.47
2018-08-07T05:40:14.067Z,12.87
2018-08-07T05:42:48.406Z,12.33
2018-08-07T05:45:22.650Z,8.53
2018-08-07T05:47:56.821Z,8.80
2018-08-07T05:50:31.101Z,5.90
2018-08-07T05:53:05.262Z,9.60
2018-08-07T05:55:39.514Z,4.80
2018-08-07T05:58:13.898Z,3.97
2018-08-07T06:00:48.231Z,5.67
2018-08-07T06:03:22.389Z,5.43
2018-08-07T06:05:56.879Z,4.97
2018-08-07T06:08:31.207Z,3.30
2018-08-07T06:11:05.573Z,2.03
2018-08-07T06:13:39.753Z,3.03
2018-08-07T06:16:13.944Z,3.37
2018-08-07T06:18:48.154Z,3.00
2018-08-07T06:21:22.455Z,3.90
2018-08-07T06:23:56.813Z,6.67
2018-08-07T06:26:31.151Z,2.00
2018-08-07T06:29:05.483Z,4.37
2018-08-07T06:31:39.670Z,1.90
2018-08-07T06:34:13.974Z,2.20
2018-08-07T06:36:48.321Z,5.77
2018-08-07T06:39:22.526Z,2.60
2018-08-07T06:41:56.968Z,4.67
2018-08-07T06:44:31.139Z,4.33
2018-08-07T06:47:05.573Z,3.20
2018-08-07T06:49:39.728Z,4.17
2018-08-07T06:52:14.011Z,6.27
2018-08-07T06:54:48.333Z,3.40
2018-08-07T06:57:22.599Z,9.90
2018-08-07T06:59:56.802Z,3.13
2018-08-07T07:02:31.187Z,1.70
2018-08-07T07:05:05.404Z,4.20
2018-08-07T07:07:39.683Z,2.53
2018-08-07T07:10:13.953Z,6.83
2018-08-07T07:12:48.425Z,4.37
2018-08-07T07:15:22.666Z,2.63
2018-08-07T07:17:56.974Z,5.90
2018-08-07T07:20:31.278Z,2.30
2018-08-07T07:23:05.689Z,1.50
2018-08-07T07:25:40.010Z,4.83
2018-08-07T07:28:14.129Z,5.30
2018-08-07T07:30:48.480Z,3.40
2018-08-07T07:33:22.749Z,1.87
2018-08-07T07:35:57.125Z,2.87
2018-08-07T07:38:31.452Z,3.50
2018-08-07T07:41:05.729Z,6.53
2018-08-07T07:43:40.027Z,6.47
2018-08-07T07:46:14.266Z,3.03
2018-08-07T07:48:48.546Z,4.87
2018-08-07T07:51:22.994Z,5.43
2018-08-07T07:53:57.318Z,2.47
2018-08-07T07:56:31.764Z,2.20
2018-08-07T07:59:06.143Z,3.63
2018-08-07T08:01:40.347Z,3.30
2018-08-07T08:04:14.785Z,1.90
2018-08-07T08:06:48.960Z,6.70
2018-08-07T08:09:23.253Z,3.07
2018-08-07T08:11:57.561Z,2.17
2018-08-07T08:14:31.961Z,2.33
2018-08-07T08:17:06.414Z,2.63
2018-08-07T08:19:40.690Z,2.40
2018-08-07T08:22:14.889Z,2.70
2018-08-07T08:24:49.077Z,2.47
2018-08-07T08:27:23.430Z,2.87
2018-08-07T08:29:57.674Z,3.50
2018-08-07T08:32:31.931Z,2.40
2018-08-07T08:35:08.113Z,3.10
2018-08-07T08:37:42.773Z,6.10
2018-08-07T08:40:20.042Z,4.47
2018-08-07T08:42:54.314Z,3.40
2018-08-07T08:45:28.634Z,5.27
2018-08-07T08:48:02.910Z,18.70
2018-08-07T08:50:37.094Z,3.27
2018-08-07T08:53:11.283Z,5.73
2018-08-07T08:55:45.529Z,3.43
2018-08-07T08:58:19.862Z,4.17
2018-08-07T09:00:54.050Z,2.50
2018-08-07T09:03:28.278Z,3.20
2018-08-07T09:06:02.544Z,5.43
2018-08-07T09:08:36.718Z,4.07
2018-08-07T09:11:10.944Z,5.10
2018-08-07T09:13:45.113Z,4.37
2018-08-07T09:16:19.383Z,5.53
2018-08-07T09:18:53.815Z,4.90
2018-08-07T09:21:28.170Z,4.47
2018-08-07T09:24:02.757Z,3.00
2018-08-07T09:26:37.055Z,11.83
2018-08-07T09:29:11.381Z,2.60
2018-08-07T09:31:45.699Z,2.83
2018-08-07T09:34:19.813Z,3.60
2018-08-07T09:36:54.171Z,2.50
2018-08-07T09:39:28.501Z,5.20
2018-08-07T09:42:02.834Z,2.50
2018-08-07T09:44:37.130Z,3.97
2018-08-07T09:47:11.418Z,3.37
2018-08-07T09:49:45.700Z,2.87
2018-08-07T09:52:20.048Z,4.57
2018-08-07T09:54:54.477Z,3.67
2018-08-07T09:57:28.744Z,2.77
2018-08-07T10:00:03.084Z,2.50
2018-08-07T10:02:42.609Z,2.90
2018-08-07T10:05:17.061Z,2.90
2018-08-07T10:07:51.206Z,2.87
2018-08-07T10:10:25.935Z,4.17
2018-08-07T10:13:00.291Z,5.63
2018-08-07T10:15:34.570Z,3.10
2018-08-07T10:18:08.865Z,3.90
2018-08-07T10:20:43.194Z,5.50
2018-08-07T10:23:17.655Z,4.67
2018-08-07T10:25:51.782Z,3.30
2018-08-07T10:28:26.141Z,4.33
2018-08-07T10:31:00.414Z,5.40
2018-08-07T10:33:34.738Z,3.73
2018-08-07T10:36:08.995Z,3.23
2018-08-07T10:38:43.306Z,6.03
2018-08-07T10:41:17.756Z,4.43
2018-08-07T10:43:52.763Z,3.93
2018-08-07T10:46:26.864Z,8.20
2018-08-07T10:49:01.166Z,3.03
2018-08-07T10:51:35.305Z,4.63
2018-08-07T10:54:09.749Z,6.13
2018-08-07T10:56:44.071Z,3.90
2018-08-07T10:59:18.257Z,6.50
2018-08-07T11:01:52.607Z,7.00
2018-08-07T11:04:26.893Z,3.53
2018-08-07T11:07:01.227Z,3.43
2018-08-07T11:09:35.506Z,4.90
2018-08-07T11:12:09.785Z,4.23
2018-08-07T11:14:44.187Z,5.10
2018-08-07T11:17:18.374Z,3.50
2018-08-07T11:19:52.643Z,3.80
2018-08-07T11:22:26.948Z,5.13
2018-08-07T11:25:01.423Z,6.53
2018-08-07T11:27:35.801Z,3.77
2018-08-07T11:30:14.050Z,8.17
2018-08-07T11:32:48.559Z,4.87
2018-08-07T11:35:23.657Z,8.03
2018-08-07T11:37:59.403Z,4.20
2018-08-07T11:40:33.729Z,3.70
2018-08-07T11:43:07.900Z,3.40
2018-08-07T11:45:42.172Z,3.37
2018-08-07T11:48:16.543Z,4.37
2018-08-07T11:50:50.865Z,3.93
2018-08-07T11:53:25.069Z,7.53
2018-08-07T11:55:59.501Z,3.30
2018-08-07T11:58:33.909Z,4.27
2018-08-07T12:01:08.365Z,5.40
2018-08-07T12:03:42.507Z,4.10
2018-08-07T12:06:16.880Z,4.00
2018-08-07T12:08:51.130Z,4.00
2018-08-07T12:11:25.394Z,5.47
2018-08-07T12:13:59.651Z,5.87
2018-08-07T12:16:33.931Z,5.53
2018-08-07T12:19:08.167Z,3.67
2018-08-07T12:21:42.471Z,13.13
2018-08-07T12:24:16.710Z,3.30
2018-08-07T12:26:50.894Z,3.50
2018-08-07T12:29:25.249Z,3.72
2018-08-07T12:31:59.538Z,3.72
2018-08-07T12:34:33.906Z,7.08
2018-08-07T12:37:08.566Z,3.80
2018-08-07T12:39:42.902Z,3.27
2018-08-07T12:42:17.154Z,5.75
2018-08-07T12:44:51.427Z,3.10
2018-08-07T12:47:25.681Z,5.75
2018-08-07T12:49:59.970Z,3.15
2018-08-07T12:52:34.306Z,2.85
2018-08-07T12:55:11.610Z,3.47
2018-08-07T12:57:46.274Z,4.35
2018-08-07T13:00:25.954Z,4.17
2018-08-07T13:03:00.242Z,7.35
2018-08-07T13:05:34.389Z,3.67
2018-08-07T13:08:08.593Z,5.70
2018-08-07T13:10:42.781Z,3.25
2018-08-07T13:13:17.038Z,3.33
2018-08-07T13:15:51.271Z,4.10
2018-08-07T13:18:25.545Z,5.67
2018-08-07T13:21:00.010Z,4.25
2018-08-07T13:23:34.214Z,4.12
2018-08-07T13:26:08.586Z,5.08
2018-08-07T13:28:42.898Z,3.15
2018-08-07T13:31:17.304Z,4.53
2018-08-07T13:33:51.363Z,2.85
2018-08-07T13:36:25.674Z,4.60
2018-08-07T13:39:00.018Z,2.60
2018-08-07T13:41:34.282Z,4.20
2018-08-07T13:44:09.315Z,4.12
2018-08-07T13:46:43.727Z,7.25
2018-08-07T13:49:18.082Z,3.02
2018-08-07T13:51:52.352Z,5.83
2018-08-07T13:54:26.628Z,3.95
2018-08-07T13:57:00.835Z,3.12
2018-08-07T13:59:35.111Z,3.90
2018-08-07T14:02:45.694Z,4.00
2018-08-07T14:05:20.824Z,6.45
2018-08-07T14:07:56.382Z,4.42
2018-08-07T14:10:30.886Z,3.30
2018-08-07T14:13:05.213Z,3.55
2018-08-07T14:15:39.687Z,5.65
2018-08-07T14:18:13.953Z,3.62
2018-08-07T14:20:48.125Z,4.42
2018-08-07T14:23:22.356Z,3.58
2018-08-07T14:25:56.431Z,3.50
2018-08-07T14:28:30.857Z,6.00
2018-08-07T14:31:05.154Z,4.28
2018-08-07T14:33:39.497Z,3.95
2018-08-07T14:36:13.709Z,7.08
2018-08-07T14:38:48.064Z,3.60
2018-08-07T14:41:22.350Z,3.25
2018-08-07T14:43:56.499Z,3.22
2018-08-07T14:46:30.709Z,4.05
2018-08-07T14:49:05.073Z,3.45
2018-08-07T14:51:39.291Z,3.47
2018-08-07T14:54:13.606Z,3.45
2018-08-07T14:56:47.931Z,3.85
2018-08-07T14:59:22.143Z,4.97
2018-08-07T15:01:56.518Z,4.80
2018-08-07T15:04:30.822Z,4.00
2018-08-07T15:07:05.250Z,6.85
2018-08-07T15:09:39.462Z,4.53
2018-08-07T15:12:13.665Z,4.90
2018-08-07T15:14:47.938Z,5.90
2018-08-07T15:17:22.201Z,4.92
2018-08-07T15:19:56.527Z,4.30
2018-08-07T15:22:30.815Z,3.55
2018-08-07T15:25:07.906Z,4.20
2018-08-07T15:27:42.078Z,8.70
2018-08-07T15:30:18.829Z,4.33
2018-08-07T15:32:53.592Z,4.40
2018-08-07T15:35:30.052Z,3.90
2018-08-07T15:38:04.369Z,5.80
2018-08-07T15:40:38.582Z,8.23
2018-08-07T15:43:13.009Z,6.28
2018-08-07T15:45:47.294Z,3.77
2018-08-07T15:48:21.577Z,6.87
2018-08-07T15:50:55.926Z,3.60
2018-08-07T15:53:30.569Z,3.85
2018-08-07T15:56:04.820Z,4.10
2018-08-07T15:58:39.222Z,5.08
2018-08-07T16:01:14.111Z,4.47
2018-08-07T16:03:48.534Z,5.05
2018-08-07T16:06:23.019Z,5.92
2018-08-07T16:08:59.429Z,5.97
2018-08-07T16:11:33.709Z,4.17
2018-08-07T16:14:08.041Z,4.37
2018-08-07T16:16:42.564Z,3.42
2018-08-07T16:19:16.905Z,3.95
2018-08-07T16:21:51.130Z,9.10
2018-08-07T16:24:25.478Z,6.45
2018-08-07T16:26:59.862Z,3.50
2018-08-07T16:29:34.206Z,3.90
2018-08-07T16:32:08.487Z,5.60
2018-08-07T16:34:43.546Z,9.00
2018-08-07T16:37:17.995Z,4.15
2018-08-07T16:39:52.500Z,4.58
2018-08-07T16:42:26.943Z,12.53
2018-08-07T16:45:01.274Z,7.95
2018-08-07T16:47:35.601Z,4.17
2018-08-07T16:50:12.187Z,5.30
2018-08-07T16:52:46.402Z,7.25
2018-08-07T16:55:21.158Z,3.62
2018-08-07T16:57:55.488Z,5.92
2018-08-07T17:00:29.725Z,4.53
2018-08-07T17:03:04.051Z,3.92
2018-08-07T17:05:38.339Z,4.50
2018-08-07T17:08:12.426Z,7.47
2018-08-07T17:10:46.690Z,8.93
2018-08-07T17:13:20.947Z,4.67
2018-08-07T17:15:55.176Z,3.80
2018-08-07T17:18:29.482Z,3.58
2018-08-07T17:21:03.962Z,4.05
2018-08-07T17:23:38.205Z,4.03
2018-08-07T17:26:12.442Z,4.10
2018-08-07T17:28:46.725Z,3.70
2018-08-07T17:31:21.094Z,9.18
2018-08-07T17:33:55.258Z,9.03
2018-08-07T17:36:29.546Z,4.75
2018-08-07T17:39:06.253Z,5.80
2018-08-07T17:41:40.393Z,6.05
2018-08-07T17:44:14.559Z,5.45
2018-08-07T17:46:48.724Z,5.45
2018-08-07T17:49:23.110Z,6.37
2018-08-07T17:51:57.410Z,6.00
2018-08-07T17:54:31.688Z,6.20
2018-08-07T17:57:06.301Z,4.47
2018-08-07T17:59:40.529Z,5.33
2018-08-07T18:02:14.949Z,4.20
2018-08-07T18:04:49.225Z,4.22
2018-08-07T18:07:23.419Z,6.78
2018-08-07T18:09:57.744Z,3.92
2018-08-07T18:12:32.254Z,5.20
2018-08-07T18:15:09.234Z,4.20
2018-08-07T18:17:44.138Z,4.92
2018-08-07T18:20:20.651Z,5.20
2018-08-07T18:22:54.921Z,5.55
2018-08-07T18:25:29.214Z,4.42
2018-08-07T18:28:03.399Z,4.30
2018-08-07T18:30:37.709Z,9.70
2018-08-07T18:33:11.918Z,6.42
2018-08-07T18:35:46.207Z,4.35
2018-08-07T18:38:20.469Z,7.42
2018-08-07T18:40:54.762Z,4.50
2018-08-07T18:43:29.014Z,7.53
2018-08-07T18:46:03.297Z,8.73
2018-08-07T18:48:37.617Z,12.60
2018-08-07T18:51:12.019Z,9.13
2018-08-07T18:53:46.173Z,6.85
2018-08-07T18:56:20.326Z,8.73
2018-08-07T18:58:54.662Z,8.35
2018-08-07T19:01:29.092Z,9.28
2018-08-07T19:04:03.382Z,5.78
2018-08-07T19:06:37.730Z,13.25
2018-08-07T19:09:12.053Z,8.03
2018-08-07T19:11:46.346Z,10.65
2018-08-07T19:14:20.655Z,18.45
2018-08-07T19:16:54.833Z,7.20
2018-08-07T19:19:29.230Z,9.60
2018-08-07T19:22:03.523Z,12.58
2018-08-07T19:24:37.810Z,9.23
2018-08-07T19:27:12.221Z,14.30
2018-08-07T19:29:46.585Z,13.03
2018-08-07T19:32:20.877Z,8.40
2018-08-07T19:34:55.248Z,11.55
2018-08-07T19:37:29.475Z,11.30
2018-08-07T19:40:05.139Z,5.83
2018-08-07T19:42:39.285Z,10.80
2018-08-07T19:45:13.832Z,14.35
2018-08-07T19:47:48.126Z,13.20
2018-08-07T19:50:22.561Z,10.90
2018-08-07T19:52:56.716Z,8.60
2018-08-07T19:55:31.042Z,10.70
2018-08-07T19:58:05.393Z,7.83
2018-08-07T20:00:39.698Z,7.60
2018-08-07T20:03:14.050Z,10.63
2018-08-07T20:05:48.301Z,9.88
2018-08-07T20:08:22.577Z,8.03
2018-08-07T20:10:57.023Z,6.97
2018-08-07T20:13:31.183Z,12.07
2018-08-07T20:16:05.579Z,6.47
2018-08-07T20:18:39.953Z,9.13
2018-08-07T20:21:14.226Z,11.90
2018-08-07T20:23:48.578Z,11.03
2018-08-07T20:26:22.844Z,7.20
2018-08-07T20:28:57.146Z,11.67
2018-08-07T20:31:31.522Z,8.07
2018-08-07T20:34:05.807Z,9.73
2018-08-07T20:36:40.095Z,6.80
2018-08-07T20:39:14.393Z,8.50
2018-08-07T20:41:48.757Z,11.17
2018-08-07T20:44:23.079Z,7.77
2018-08-07T20:46:57.393Z,8.57
2018-08-07T20:49:31.492Z,11.60
2018-08-07T20:52:05.931Z,8.97
2018-08-07T20:54:40.173Z,7.60
2018-08-07T20:57:14.513Z,9.10
2018-08-07T20:59:48.689Z,9.67
2018-08-07T21:02:23.067Z,7.57
2018-08-07T21:04:57.301Z,9.97
2018-08-07T21:07:31.626Z,8.73
2018-08-07T21:10:06.482Z,6.90
2018-08-07T21:12:40.674Z,9.17
2018-08-07T21:15:15.086Z,7.17
2018-08-07T21:17:49.245Z,9.77
2018-08-07T21:20:23.974Z,6.87
2018-08-07T21:22:58.230Z,8.80
2018-08-07T21:25:32.534Z,8.40
2018-08-07T21:28:06.713Z,11.47
2018-08-07T21:30:41.072Z,7.73
2018-08-07T21:33:15.443Z,7.53
2018-08-07T21:35:49.702Z,7.87
2018-08-07T21:38:23.895Z,8.83
2018-08-07T21:40:58.137Z,8.00
2018-08-07T21:43:32.482Z,8.83
2018-08-07T21:46:07.092Z,7.57
2018-08-07T21:48:41.395Z,8.97
2018-08-07T21:51:15.646Z,8.17
2018-08-07T21:53:49.966Z,9.07
2018-08-07T21:56:24.249Z,8.37
2018-08-07T21:58:58.454Z,7.67
2018-08-07T22:01:32.662Z,7.60
2018-08-07T22:04:07.011Z,10.13
2018-08-07T22:06:41.409Z,9.10
2018-08-07T22:09:15.638Z,12.03
2018-08-07T22:11:49.895Z,9.57
2018-08-07T22:14:24.102Z,7.67
2018-08-07T22:16:58.391Z,11.57
2018-08-07T22:19:32.666Z,11.47
2018-08-07T22:22:07.413Z,11.60
2018-08-07T22:24:41.726Z,7.77
2018-08-07T22:27:16.026Z,7.63
2018-08-07T22:29:50.301Z,9.93
2018-08-07T22:32:24.636Z,12.07
2018-08-07T22:34:58.814Z,10.10
2018-08-07T22:37:33.109Z,9.33
2018-08-07T22:40:07.886Z,12.37
2018-08-07T22:42:42.162Z,9.13
2018-08-07T22:45:17.594Z,10.00
2018-08-07T22:47:51.755Z,10.40
2018-08-07T22:50:26.057Z,12.83
2018-08-07T22:53:00.314Z,12.23
2018-08-07T22:55:34.588Z,8.90
2018-08-07T22:58:08.746Z,10.00
2018-08-07T23:00:43.042Z,7.67
2018-08-07T23:03:17.354Z,9.83
2018-08-07T23:05:51.624Z,8.77
2018-08-07T23:08:25.910Z,9.60
2018-08-07T23:11:00.054Z,9.67
2018-08-07T23:13:34.421Z,9.43
2018-08-07T23:16:08.609Z,9.47
2018-08-07T23:18:42.779Z,8.30
2018-08-07T23:21:17.045Z,8.33
2018-08-07T23:23:51.387Z,9.60
2018-08-07T23:26:25.769Z,9.83
2018-08-07T23:28:59.986Z,11.37
2018-08-07T23:31:34.217Z,9.37
2018-08-07T23:34:08.456Z,10.20
2018-08-07T23:36:42.726Z,10.27
2018-08-07T23:39:16.970Z,10.03
2018-08-07T23:41:51.329Z,8.30
2018-08-07T23:44:25.609Z,9.57
2018-08-07T23:46:59.794Z,10.10
2018-08-07T23:49:34.003Z,8.77
2018-08-07T23:52:08.282Z,9.83
2018-08-07T23:54:42.559Z,8.57
2018-08-07T23:57:16.873Z,9.70
2018-08-07T23:59:51.183Z,11.00
